Weather at Ponikve Airport

Public forecast

Using degrees Celsius for public forecast. Weather courtesy of forecast.io.

Closest aviation weather report (METAR) to Ponikve Airport

Closest report is Morava Airport, 38.8 nm (71.9 km) E. Retrieved 2022/06/29 09:00 UTC (11 minutes ago):

LYKV 290900Z 13006KT 080V180 CAVOK 29/17 Q1015 NOSIG

Closest aviation forecast (TAF) to Ponikve Airport

Closest forecast is Morava Airport, 38.8 nm (71.9 km) E. Retrieved 2022/06/29 06:00 UTC (3 hours ago):

TAF LYKV 290500Z 2906/3006 10005KT CAVOK TX34/2914Z TN17/3003Z